sensor_id;sensor_type;location;lat;lon;timestamp;P1;durP1;ratioP1;P2;durP2;ratioP2
9761;SDS011;4920;49.594;11.022;2022-11-21T00:01:11;2.20;;;1.87;;
9761;SDS011;4920;49.594;11.022;2022-11-21T00:03:43;2.67;;;2.00;;
9761;SDS011;4920;49.594;11.022;2022-11-21T00:06:11;2.37;;;2.10;;
9761;SDS011;4920;49.594;11.022;2022-11-21T00:08:40;2.33;;;2.10;;
9761;SDS011;4920;49.594;11.022;2022-11-21T00:11:08;2.20;;;2.00;;
9761;SDS011;4920;49.594;11.022;2022-11-21T00:13:37;2.53;;;2.20;;
9761;SDS011;4920;49.594;11.022;2022-11-21T00:16:08;3.07;;;2.33;;
9761;SDS011;4920;49.594;11.022;2022-11-21T00:18:37;2.97;;;2.03;;
9761;SDS011;4920;49.594;11.022;2022-11-21T00:21:06;2.30;;;2.10;;
9761;SDS011;4920;49.594;11.022;2022-11-21T00:23:36;3.67;;;2.20;;
9761;SDS011;4920;49.594;11.022;2022-11-21T00:26:05;3.07;;;2.17;;
9761;SDS011;4920;49.594;11.022;2022-11-21T00:28:34;4.80;;;2.23;;
9761;SDS011;4920;49.594;11.022;2022-11-21T00:31:03;2.40;;;2.10;;
9761;SDS011;4920;49.594;11.022;2022-11-21T00:33:34;3.10;;;2.30;;
9761;SDS011;4920;49.594;11.022;2022-11-21T00:36:05;5.53;;;2.30;;
9761;SDS011;4920;49.594;11.022;2022-11-21T00:38:34;4.07;;;2.50;;
9761;SDS011;4920;49.594;11.022;2022-11-21T00:41:03;4.43;;;2.50;;
9761;SDS011;4920;49.594;11.022;2022-11-21T00:43:32;5.67;;;2.63;;
9761;SDS011;4920;49.594;11.022;2022-11-21T00:46:01;4.13;;;2.77;;
9761;SDS011;4920;49.594;11.022;2022-11-21T00:48:30;3.67;;;2.70;;
9761;SDS011;4920;49.594;11.022;2022-11-21T00:51:00;4.23;;;2.70;;
9761;SDS011;4920;49.594;11.022;2022-11-21T00:53:28;7.40;;;2.50;;
9761;SDS011;4920;49.594;11.022;2022-11-21T00:55:57;4.73;;;2.60;;
9761;SDS011;4920;49.594;11.022;2022-11-21T00:58:25;4.83;;;2.60;;
9761;SDS011;4920;49.594;11.022;2022-11-21T01:01:00;5.93;;;2.87;;
9761;SDS011;4920;49.594;11.022;2022-11-21T01:03:30;9.20;;;2.40;;
9761;SDS011;4920;49.594;11.022;2022-11-21T01:06:02;5.07;;;2.53;;
9761;SDS011;4920;49.594;11.022;2022-11-21T01:08:33;6.20;;;2.67;;
9761;SDS011;4920;49.594;11.022;2022-11-21T01:11:02;8.03;;;2.30;;
9761;SDS011;4920;49.594;11.022;2022-11-21T01:13:32;9.50;;;2.30;;
9761;SDS011;4920;49.594;11.022;2022-11-21T01:16:04;6.50;;;2.30;;
9761;SDS011;4920;49.594;11.022;2022-11-21T01:18:33;6.77;;;2.70;;
9761;SDS011;4920;49.594;11.022;2022-11-21T01:21:04;4.10;;;2.40;;
9761;SDS011;4920;49.594;11.022;2022-11-21T01:23:33;6.00;;;2.53;;
9761;SDS011;4920;49.594;11.022;2022-11-21T01:26:02;7.47;;;2.40;;
9761;SDS011;4920;49.594;11.022;2022-11-21T01:28:32;5.47;;;2.60;;
9761;SDS011;4920;49.594;11.022;2022-11-21T01:31:03;4.13;;;2.10;;
9761;SDS011;4920;49.594;11.022;2022-11-21T01:33:33;4.17;;;1.80;;
9761;SDS011;4920;49.594;11.022;2022-11-21T01:36:06;5.40;;;2.00;;
9761;SDS011;4920;49.594;11.022;2022-11-21T01:38:36;6.03;;;2.07;;
9761;SDS011;4920;49.594;11.022;2022-11-21T01:41:04;5.20;;;2.00;;
9761;SDS011;4920;49.594;11.022;2022-11-21T01:43:33;7.70;;;2.17;;
9761;SDS011;4920;49.594;11.022;2022-11-21T01:46:03;3.03;;;1.90;;
9761;SDS011;4920;49.594;11.022;2022-11-21T01:48:38;6.10;;;2.00;;
9761;SDS011;4920;49.594;11.022;2022-11-21T01:51:12;7.67;;;1.97;;
9761;SDS011;4920;49.594;11.022;2022-11-21T01:53:44;4.83;;;1.90;;
9761;SDS011;4920;49.594;11.022;2022-11-21T01:56:17;5.93;;;2.23;;
9761;SDS011;4920;49.594;11.022;2022-11-21T01:58:47;3.90;;;2.00;;
9761;SDS011;4920;49.594;11.022;2022-11-21T02:01:18;3.70;;;1.90;;
9761;SDS011;4920;49.594;11.022;2022-11-21T02:03:46;4.50;;;1.97;;
9761;SDS011;4920;49.594;11.022;2022-11-21T02:06:17;5.17;;;2.00;;
9761;SDS011;4920;49.594;11.022;2022-11-21T02:08:45;5.70;;;2.20;;
9761;SDS011;4920;49.594;11.022;2022-11-21T02:11:16;7.00;;;2.30;;
9761;SDS011;4920;49.594;11.022;2022-11-21T02:13:49;4.80;;;1.93;;
9761;SDS011;4920;49.594;11.022;2022-11-21T02:16:18;5.17;;;1.90;;
9761;SDS011;4920;49.594;11.022;2022-11-21T02:18:46;5.40;;;1.90;;
9761;SDS011;4920;49.594;11.022;2022-11-21T02:21:18;7.30;;;1.97;;
9761;SDS011;4920;49.594;11.022;2022-11-21T02:23:56;5.90;;;2.00;;
9761;SDS011;4920;49.594;11.022;2022-11-21T02:26:29;4.73;;;1.63;;
9761;SDS011;4920;49.594;11.022;2022-11-21T02:28:58;4.77;;;1.77;;
9761;SDS011;4920;49.594;11.022;2022-11-21T02:31:26;4.97;;;1.50;;
9761;SDS011;4920;49.594;11.022;2022-11-21T02:33:55;8.07;;;2.30;;
9761;SDS011;4920;49.594;11.022;2022-11-21T02:36:35;6.97;;;1.87;;
9761;SDS011;4920;49.594;11.022;2022-11-21T02:39:08;4.80;;;1.73;;
9761;SDS011;4920;49.594;11.022;2022-11-21T02:41:42;5.27;;;2.10;;
9761;SDS011;4920;49.594;11.022;2022-11-21T02:44:17;8.13;;;1.90;;
9761;SDS011;4920;49.594;11.022;2022-11-21T02:46:50;6.20;;;2.03;;
9761;SDS011;4920;49.594;11.022;2022-11-21T02:49:23;4.33;;;1.93;;
9761;SDS011;4920;49.594;11.022;2022-11-21T02:51:56;5.13;;;1.93;;
9761;SDS011;4920;49.594;11.022;2022-11-21T02:54:25;5.70;;;1.70;;
9761;SDS011;4920;49.594;11.022;2022-11-21T02:56:55;2.43;;;1.70;;
9761;SDS011;4920;49.594;11.022;2022-11-21T02:59:23;4.80;;;1.53;;
9761;SDS011;4920;49.594;11.022;2022-11-21T03:01:52;4.73;;;1.50;;
9761;SDS011;4920;49.594;11.022;2022-11-21T03:04:22;6.73;;;1.93;;
9761;SDS011;4920;49.594;11.022;2022-11-21T03:06:51;6.33;;;1.70;;
9761;SDS011;4920;49.594;11.022;2022-11-21T03:09:20;4.77;;;1.80;;
9761;SDS011;4920;49.594;11.022;2022-11-21T03:11:48;6.33;;;1.87;;
9761;SDS011;4920;49.594;11.022;2022-11-21T03:14:18;6.00;;;1.80;;
9761;SDS011;4920;49.594;11.022;2022-11-21T03:16:46;6.63;;;1.90;;
9761;SDS011;4920;49.594;11.022;2022-11-21T03:19:15;3.27;;;1.50;;
9761;SDS011;4920;49.594;11.022;2022-11-21T03:21:43;5.60;;;1.60;;
9761;SDS011;4920;49.594;11.022;2022-11-21T03:24:11;3.97;;;1.40;;
9761;SDS011;4920;49.594;11.022;2022-11-21T03:26:39;4.33;;;1.40;;
9761;SDS011;4920;49.594;11.022;2022-11-21T03:29:08;4.47;;;1.57;;
9761;SDS011;4920;49.594;11.022;2022-11-21T03:31:38;2.53;;;1.30;;
9761;SDS011;4920;49.594;11.022;2022-11-21T03:34:06;2.40;;;1.40;;
9761;SDS011;4920;49.594;11.022;2022-11-21T03:36:34;2.70;;;1.23;;
9761;SDS011;4920;49.594;11.022;2022-11-21T03:39:03;3.57;;;1.40;;
9761;SDS011;4920;49.594;11.022;2022-11-21T03:41:31;2.77;;;1.47;;
9761;SDS011;4920;49.594;11.022;2022-11-21T03:44:02;1.77;;;1.20;;
9761;SDS011;4920;49.594;11.022;2022-11-21T03:46:32;3.50;;;1.77;;
9761;SDS011;4920;49.594;11.022;2022-11-21T03:49:04;5.23;;;1.70;;
9761;SDS011;4920;49.594;11.022;2022-11-21T03:51:33;3.47;;;1.60;;
9761;SDS011;4920;49.594;11.022;2022-11-21T03:54:02;3.43;;;1.70;;
9761;SDS011;4920;49.594;11.022;2022-11-21T03:56:31;6.80;;;2.40;;
9761;SDS011;4920;49.594;11.022;2022-11-21T03:59:00;4.20;;;1.70;;
9761;SDS011;4920;49.594;11.022;2022-11-21T04:01:28;5.50;;;1.83;;
9761;SDS011;4920;49.594;11.022;2022-11-21T04:04:04;5.07;;;1.80;;
9761;SDS011;4920;49.594;11.022;2022-11-21T04:06:33;4.93;;;1.70;;
9761;SDS011;4920;49.594;11.022;2022-11-21T04:09:01;4.67;;;1.70;;
9761;SDS011;4920;49.594;11.022;2022-11-21T04:11:29;6.57;;;2.03;;
9761;SDS011;4920;49.594;11.022;2022-11-21T04:13:57;5.67;;;1.80;;
9761;SDS011;4920;49.594;11.022;2022-11-21T04:16:26;5.23;;;1.80;;
9761;SDS011;4920;49.594;11.022;2022-11-21T04:18:54;4.07;;;1.87;;
9761;SDS011;4920;49.594;11.022;2022-11-21T04:21:24;3.90;;;1.70;;
9761;SDS011;4920;49.594;11.022;2022-11-21T04:23:52;6.37;;;2.00;;
9761;SDS011;4920;49.594;11.022;2022-11-21T04:26:20;5.63;;;2.13;;
9761;SDS011;4920;49.594;11.022;2022-11-21T04:28:49;5.70;;;2.23;;
9761;SDS011;4920;49.594;11.022;2022-11-21T04:31:17;5.90;;;2.17;;
9761;SDS011;4920;49.594;11.022;2022-11-21T04:33:45;6.20;;;2.17;;
9761;SDS011;4920;49.594;11.022;2022-11-21T04:36:14;6.13;;;1.90;;
9761;SDS011;4920;49.594;11.022;2022-11-21T04:38:43;3.73;;;1.87;;
9761;SDS011;4920;49.594;11.022;2022-11-21T04:41:12;4.83;;;1.87;;
9761;SDS011;4920;49.594;11.022;2022-11-21T04:43:40;6.60;;;2.10;;
9761;SDS011;4920;49.594;11.022;2022-11-21T04:46:08;7.73;;;2.33;;
9761;SDS011;4920;49.594;11.022;2022-11-21T04:48:37;5.87;;;1.90;;
9761;SDS011;4920;49.594;11.022;2022-11-21T04:51:05;4.57;;;1.70;;
9761;SDS011;4920;49.594;11.022;2022-11-21T04:53:33;5.90;;;2.00;;
9761;SDS011;4920;49.594;11.022;2022-11-21T04:56:09;9.30;;;2.03;;
9761;SDS011;4920;49.594;11.022;2022-11-21T04:58:41;5.10;;;1.70;;
9761;SDS011;4920;49.594;11.022;2022-11-21T05:01:10;6.67;;;2.00;;
9761;SDS011;4920;49.594;11.022;2022-11-21T05:03:39;5.60;;;1.90;;
9761;SDS011;4920;49.594;11.022;2022-11-21T05:06:07;4.33;;;1.70;;
9761;SDS011;4920;49.594;11.022;2022-11-21T05:08:35;6.40;;;2.03;;
9761;SDS011;4920;49.594;11.022;2022-11-21T05:11:03;3.93;;;1.70;;
9761;SDS011;4920;49.594;11.022;2022-11-21T05:13:52;5.43;;;1.87;;
9761;SDS011;4920;49.594;11.022;2022-11-21T05:16:20;4.53;;;1.70;;
9761;SDS011;4920;49.594;11.022;2022-11-21T05:18:49;4.17;;;1.60;;
9761;SDS011;4920;49.594;11.022;2022-11-21T05:21:17;7.87;;;1.80;;
9761;SDS011;4920;49.594;11.022;2022-11-21T05:23:45;4.03;;;2.13;;
9761;SDS011;4920;49.594;11.022;2022-11-21T05:26:14;7.57;;;1.50;;
9761;SDS011;4920;49.594;11.022;2022-11-21T05:28:42;5.20;;;1.60;;
9761;SDS011;4920;49.594;11.022;2022-11-21T05:31:14;4.47;;;1.50;;
9761;SDS011;4920;49.594;11.022;2022-11-21T05:33:42;4.93;;;1.90;;
9761;SDS011;4920;49.594;11.022;2022-11-21T05:36:11;7.20;;;1.70;;
9761;SDS011;4920;49.594;11.022;2022-11-21T05:38:39;3.60;;;1.70;;
9761;SDS011;4920;49.594;11.022;2022-11-21T05:41:07;5.97;;;1.50;;
9761;SDS011;4920;49.594;11.022;2022-11-21T05:43:36;5.67;;;1.60;;
9761;SDS011;4920;49.594;11.022;2022-11-21T05:46:12;3.33;;;1.67;;
9761;SDS011;4920;49.594;11.022;2022-11-21T05:48:42;4.90;;;1.70;;
9761;SDS011;4920;49.594;11.022;2022-11-21T05:51:10;6.63;;;1.80;;
9761;SDS011;4920;49.594;11.022;2022-11-21T05:53:39;5.13;;;1.70;;
9761;SDS011;4920;49.594;11.022;2022-11-21T05:56:08;5.97;;;1.90;;
9761;SDS011;4920;49.594;11.022;2022-11-21T05:58:38;3.93;;;1.70;;
9761;SDS011;4920;49.594;11.022;2022-11-21T06:01:06;3.10;;;1.67;;
9761;SDS011;4920;49.594;11.022;2022-11-21T06:03:36;3.53;;;2.30;;
9761;SDS011;4920;49.594;11.022;2022-11-21T06:06:07;4.70;;;2.10;;
9761;SDS011;4920;49.594;11.022;2022-11-21T06:08:36;5.77;;;2.67;;
9761;SDS011;4920;49.594;11.022;2022-11-21T06:11:06;3.10;;;2.13;;
9761;SDS011;4920;49.594;11.022;2022-11-21T06:13:35;6.30;;;4.50;;
9761;SDS011;4920;49.594;11.022;2022-11-21T06:16:05;7.73;;;3.50;;
9761;SDS011;4920;49.594;11.022;2022-11-21T06:18:35;3.73;;;3.17;;
9761;SDS011;4920;49.594;11.022;2022-11-21T06:21:05;6.87;;;3.80;;
9761;SDS011;4920;49.594;11.022;2022-11-21T06:23:36;5.87;;;2.80;;
9761;SDS011;4920;49.594;11.022;2022-11-21T06:28:58;3.63;;;2.70;;
9761;SDS011;4920;49.594;11.022;2022-11-21T06:31:26;4.07;;;2.10;;
9761;SDS011;4920;49.594;11.022;2022-11-21T06:33:57;7.17;;;2.70;;
9761;SDS011;4920;49.594;11.022;2022-11-21T06:36:27;2.43;;;1.77;;
9761;SDS011;4920;49.594;11.022;2022-11-21T06:38:55;2.63;;;1.80;;
9761;SDS011;4920;49.594;11.022;2022-11-21T06:41:24;3.63;;;2.23;;
9761;SDS011;4920;49.594;11.022;2022-11-21T06:43:57;4.00;;;1.80;;
9761;SDS011;4920;49.594;11.022;2022-11-21T06:46:26;4.90;;;2.17;;
9761;SDS011;4920;49.594;11.022;2022-11-21T06:48:54;3.70;;;2.63;;
9761;SDS011;4920;49.594;11.022;2022-11-21T06:57:38;5.63;;;2.20;;
9761;SDS011;4920;49.594;11.022;2022-11-21T07:00:06;4.50;;;2.07;;
9761;SDS011;4920;49.594;11.022;2022-11-21T07:02:35;3.07;;;1.60;;
9761;SDS011;4920;49.594;11.022;2022-11-21T07:05:04;2.40;;;1.50;;
9761;SDS011;4920;49.594;11.022;2022-11-21T07:07:32;5.23;;;1.80;;
9761;SDS011;4920;49.594;11.022;2022-11-21T07:10:01;4.83;;;1.63;;
9761;SDS011;4920;49.594;11.022;2022-11-21T07:12:30;3.13;;;1.70;;
9761;SDS011;4920;49.594;11.022;2022-11-21T07:15:16;3.53;;;1.80;;
9761;SDS011;4920;49.594;11.022;2022-11-21T07:17:44;3.43;;;1.70;;
9761;SDS011;4920;49.594;11.022;2022-11-21T07:20:12;2.93;;;1.50;;
9761;SDS011;4920;49.594;11.022;2022-11-21T07:22:41;3.17;;;1.80;;
9761;SDS011;4920;49.594;11.022;2022-11-21T07:25:09;4.93;;;1.80;;
9761;SDS011;4920;49.594;11.022;2022-11-21T07:27:38;2.97;;;2.23;;
9761;SDS011;4920;49.594;11.022;2022-11-21T07:30:07;3.40;;;2.00;;
9761;SDS011;4920;49.594;11.022;2022-11-21T07:32:36;2.80;;;1.93;;
9761;SDS011;4920;49.594;11.022;2022-11-21T07:35:05;4.77;;;1.70;;
9761;SDS011;4920;49.594;11.022;2022-11-21T07:37:36;2.30;;;1.60;;
9761;SDS011;4920;49.594;11.022;2022-11-21T07:40:05;4.03;;;1.80;;
9761;SDS011;4920;49.594;11.022;2022-11-21T07:42:34;3.53;;;1.83;;
9761;SDS011;4920;49.594;11.022;2022-11-21T07:45:05;2.83;;;1.90;;
9761;SDS011;4920;49.594;11.022;2022-11-21T07:47:33;2.27;;;1.57;;
9761;SDS011;4920;49.594;11.022;2022-11-21T07:50:02;3.50;;;1.53;;
9761;SDS011;4920;49.594;11.022;2022-11-21T07:52:31;2.27;;;1.57;;
9761;SDS011;4920;49.594;11.022;2022-11-21T07:54:59;4.90;;;1.80;;
9761;SDS011;4920;49.594;11.022;2022-11-21T07:57:28;6.93;;;2.10;;
9761;SDS011;4920;49.594;11.022;2022-11-21T07:59:56;3.40;;;1.80;;
9761;SDS011;4920;49.594;11.022;2022-11-21T08:02:26;4.10;;;1.73;;
9761;SDS011;4920;49.594;11.022;2022-11-21T08:04:55;4.37;;;2.00;;
9761;SDS011;4920;49.594;11.022;2022-11-21T08:07:23;2.50;;;1.77;;
9761;SDS011;4920;49.594;11.022;2022-11-21T08:09:52;3.53;;;1.90;;
9761;SDS011;4920;49.594;11.022;2022-11-21T08:12:20;3.23;;;1.93;;
9761;SDS011;4920;49.594;11.022;2022-11-21T08:14:48;3.73;;;1.70;;
9761;SDS011;4920;49.594;11.022;2022-11-21T08:17:16;4.33;;;1.80;;
9761;SDS011;4920;49.594;11.022;2022-11-21T08:19:46;6.17;;;2.10;;
9761;SDS011;4920;49.594;11.022;2022-11-21T08:22:14;4.13;;;2.00;;
9761;SDS011;4920;49.594;11.022;2022-11-21T08:24:42;3.80;;;2.20;;
9761;SDS011;4920;49.594;11.022;2022-11-21T08:27:11;3.90;;;1.80;;
9761;SDS011;4920;49.594;11.022;2022-11-21T08:29:39;6.80;;;2.00;;
9761;SDS011;4920;49.594;11.022;2022-11-21T08:32:08;3.60;;;2.00;;
9761;SDS011;4920;49.594;11.022;2022-11-21T08:34:36;4.77;;;1.80;;
9761;SDS011;4920;49.594;11.022;2022-11-21T08:37:05;3.67;;;1.90;;
9761;SDS011;4920;49.594;11.022;2022-11-21T08:39:34;4.23;;;1.67;;
9761;SDS011;4920;49.594;11.022;2022-11-21T08:42:02;3.63;;;1.73;;
9761;SDS011;4920;49.594;11.022;2022-11-21T08:44:30;4.90;;;1.80;;
9761;SDS011;4920;49.594;11.022;2022-11-21T08:47:00;5.83;;;1.70;;
9761;SDS011;4920;49.594;11.022;2022-11-21T08:49:28;3.23;;;1.70;;
9761;SDS011;4920;49.594;11.022;2022-11-21T08:51:57;3.47;;;1.70;;
9761;SDS011;4920;49.594;11.022;2022-11-21T08:54:26;3.10;;;1.80;;
9761;SDS011;4920;49.594;11.022;2022-11-21T08:56:55;5.67;;;1.73;;
9761;SDS011;4920;49.594;11.022;2022-11-21T08:59:23;3.77;;;1.80;;
9761;SDS011;4920;49.594;11.022;2022-11-21T09:01:51;5.17;;;1.53;;
9761;SDS011;4920;49.594;11.022;2022-11-21T09:04:19;2.33;;;1.23;;
9761;SDS011;4920;49.594;11.022;2022-11-21T09:06:48;3.37;;;1.73;;
9761;SDS011;4920;49.594;11.022;2022-11-21T09:09:16;2.90;;;1.53;;
9761;SDS011;4920;49.594;11.022;2022-11-21T09:11:52;3.90;;;1.60;;
9761;SDS011;4920;49.594;11.022;2022-11-21T09:14:21;4.40;;;1.70;;
9761;SDS011;4920;49.594;11.022;2022-11-21T09:17:03;3.97;;;1.60;;
9761;SDS011;4920;49.594;11.022;2022-11-21T09:19:49;5.00;;;1.60;;
9761;SDS011;4920;49.594;11.022;2022-11-21T09:22:17;3.93;;;1.70;;
9761;SDS011;4920;49.594;11.022;2022-11-21T09:24:45;2.97;;;1.60;;
9761;SDS011;4920;49.594;11.022;2022-11-21T09:27:15;4.10;;;1.80;;
9761;SDS011;4920;49.594;11.022;2022-11-21T09:29:43;3.83;;;1.43;;
9761;SDS011;4920;49.594;11.022;2022-11-21T09:32:19;3.77;;;1.63;;
9761;SDS011;4920;49.594;11.022;2022-11-21T09:34:47;3.57;;;1.60;;
9761;SDS011;4920;49.594;11.022;2022-11-21T09:37:15;2.03;;;1.53;;
9761;SDS011;4920;49.594;11.022;2022-11-21T09:39:43;3.23;;;1.53;;
9761;SDS011;4920;49.594;11.022;2022-11-21T09:42:27;3.67;;;1.53;;
9761;SDS011;4920;49.594;11.022;2022-11-21T09:45:09;2.93;;;1.80;;
9761;SDS011;4920;49.594;11.022;2022-11-21T09:47:41;5.03;;;1.77;;
9761;SDS011;4920;49.594;11.022;2022-11-21T09:50:18;3.00;;;1.50;;
9761;SDS011;4920;49.594;11.022;2022-11-21T09:52:53;4.23;;;1.80;;
9761;SDS011;4920;49.594;11.022;2022-11-21T09:55:28;2.43;;;1.60;;
9761;SDS011;4920;49.594;11.022;2022-11-21T09:58:12;4.60;;;1.73;;
9761;SDS011;4920;49.594;11.022;2022-11-21T10:00:45;5.07;;;1.50;;
9761;SDS011;4920;49.594;11.022;2022-11-21T10:03:16;2.83;;;1.50;;
9761;SDS011;4920;49.594;11.022;2022-11-21T10:05:48;5.70;;;1.70;;
9761;SDS011;4920;49.594;11.022;2022-11-21T10:08:23;3.63;;;1.60;;
9761;SDS011;4920;49.594;11.022;2022-11-21T10:10:57;5.87;;;1.77;;
9761;SDS011;4920;49.594;11.022;2022-11-21T10:13:48;5.13;;;1.67;;
9761;SDS011;4920;49.594;11.022;2022-11-21T10:16:30;2.90;;;1.60;;
9761;SDS011;4920;49.594;11.022;2022-11-21T10:19:11;2.77;;;2.20;;
9761;SDS011;4920;49.594;11.022;2022-11-21T10:21:52;5.20;;;1.97;;
9761;SDS011;4920;49.594;11.022;2022-11-21T10:24:38;2.27;;;1.57;;
9761;SDS011;4920;49.594;11.022;2022-11-21T10:27:12;3.93;;;1.70;;
9761;SDS011;4920;49.594;11.022;2022-11-21T10:29:45;3.27;;;1.70;;
9761;SDS011;4920;49.594;11.022;2022-11-21T10:32:19;2.87;;;1.60;;
9761;SDS011;4920;49.594;11.022;2022-11-21T10:34:52;4.80;;;1.70;;
9761;SDS011;4920;49.594;11.022;2022-11-21T10:37:26;3.23;;;1.80;;
9761;SDS011;4920;49.594;11.022;2022-11-21T10:40:02;4.90;;;2.23;;
9761;SDS011;4920;49.594;11.022;2022-11-21T10:42:43;5.53;;;2.37;;
9761;SDS011;4920;49.594;11.022;2022-11-21T10:45:20;4.47;;;1.80;;
9761;SDS011;4920;49.594;11.022;2022-11-21T10:47:49;3.63;;;1.93;;
9761;SDS011;4920;49.594;11.022;2022-11-21T10:50:24;4.90;;;2.20;;
9761;SDS011;4920;49.594;11.022;2022-11-21T10:56:16;5.93;;;2.70;;
9761;SDS011;4920;49.594;11.022;2022-11-21T10:58:46;7.40;;;3.77;;
9761;SDS011;4920;49.594;11.022;2022-11-21T11:01:22;9.43;;;5.30;;
9761;SDS011;4920;49.594;11.022;2022-11-21T11:06:54;8.47;;;5.20;;
9761;SDS011;4920;49.594;11.022;2022-11-21T11:09:24;21.67;;;11.87;;
9761;SDS011;4920;49.594;11.022;2022-11-21T11:14:49;12.57;;;5.30;;
9761;SDS011;4920;49.594;11.022;2022-11-21T11:17:26;31.17;;;18.90;;
9761;SDS011;4920;49.594;11.022;2022-11-21T11:20:00;22.97;;;16.57;;
9761;SDS011;4920;49.594;11.022;2022-11-21T11:22:30;9.83;;;6.60;;
9761;SDS011;4920;49.594;11.022;2022-11-21T11:25:02;4.60;;;2.27;;
9761;SDS011;4920;49.594;11.022;2022-11-21T11:27:31;5.27;;;3.17;;
9761;SDS011;4920;49.594;11.022;2022-11-21T11:30:03;3.20;;;2.10;;
9761;SDS011;4920;49.594;11.022;2022-11-21T11:32:39;10.47;;;5.77;;
9761;SDS011;4920;49.594;11.022;2022-11-21T11:38:02;7.63;;;2.93;;
9761;SDS011;4920;49.594;11.022;2022-11-21T11:40:34;7.73;;;3.77;;
9761;SDS011;4920;49.594;11.022;2022-11-21T11:43:12;6.80;;;4.80;;
9761;SDS011;4920;49.594;11.022;2022-11-21T11:46:13;7.03;;;4.10;;
9761;SDS011;4920;49.594;11.022;2022-11-21T11:49:27;7.07;;;2.30;;
9761;SDS011;4920;49.594;11.022;2022-11-21T11:52:24;9.20;;;4.30;;
9761;SDS011;4920;49.594;11.022;2022-11-21T11:54:59;4.77;;;2.93;;
9761;SDS011;4920;49.594;11.022;2022-11-21T11:57:31;6.50;;;3.40;;
9761;SDS011;4920;49.594;11.022;2022-11-21T12:00:06;7.43;;;4.10;;
9761;SDS011;4920;49.594;11.022;2022-11-21T12:02:51;4.20;;;1.80;;
9761;SDS011;4920;49.594;11.022;2022-11-21T12:05:27;6.30;;;2.70;;
9761;SDS011;4920;49.594;11.022;2022-11-21T12:08:02;4.10;;;2.70;;
9761;SDS011;4920;49.594;11.022;2022-11-21T12:14:26;5.30;;;2.23;;
9761;SDS011;4920;49.594;11.022;2022-11-21T12:17:24;2.63;;;1.80;;
9761;SDS011;4920;49.594;11.022;2022-11-21T12:19:57;5.50;;;1.50;;
9761;SDS011;4920;49.594;11.022;2022-11-21T12:22:27;3.73;;;1.77;;
9761;SDS011;4920;49.594;11.022;2022-11-21T12:24:55;3.40;;;1.90;;
9761;SDS011;4920;49.594;11.022;2022-11-21T12:27:25;1.90;;;1.50;;
9761;SDS011;4920;49.594;11.022;2022-11-21T12:30:00;4.47;;;1.93;;
9761;SDS011;4920;49.594;11.022;2022-11-21T12:32:44;5.03;;;2.93;;
9761;SDS011;4920;49.594;11.022;2022-11-21T12:35:44;4.73;;;1.60;;
9761;SDS011;4920;49.594;11.022;2022-11-21T12:38:48;2.47;;;1.40;;
9761;SDS011;4920;49.594;11.022;2022-11-21T12:41:26;2.40;;;1.30;;
9761;SDS011;4920;49.594;11.022;2022-11-21T12:44:29;3.70;;;1.23;;
9761;SDS011;4920;49.594;11.022;2022-11-21T12:47:12;3.67;;;2.40;;
9761;SDS011;4920;49.594;11.022;2022-11-21T12:49:53;3.10;;;1.40;;
9761;SDS011;4920;49.594;11.022;2022-11-21T12:52:47;3.27;;;1.47;;
9761;SDS011;4920;49.594;11.022;2022-11-21T12:55:40;5.07;;;1.67;;
9761;SDS011;4920;49.594;11.022;2022-11-21T12:58:15;5.60;;;1.83;;
9761;SDS011;4920;49.594;11.022;2022-11-21T13:01:02;2.57;;;1.50;;
9761;SDS011;4920;49.594;11.022;2022-11-21T13:03:50;4.13;;;1.70;;
9761;SDS011;4920;49.594;11.022;2022-11-21T13:06:25;3.40;;;1.70;;
9761;SDS011;4920;49.594;11.022;2022-11-21T13:08:56;3.87;;;1.47;;
9761;SDS011;4920;49.594;11.022;2022-11-21T13:11:31;6.03;;;1.80;;
9761;SDS011;4920;49.594;11.022;2022-11-21T13:27:22;4.20;;;1.40;;
9761;SDS011;4920;49.594;11.022;2022-11-21T13:30:19;3.10;;;1.70;;
9761;SDS011;4920;49.594;11.022;2022-11-21T13:32:50;4.70;;;1.50;;
9761;SDS011;4920;49.594;11.022;2022-11-21T13:38:30;3.10;;;1.47;;
9761;SDS011;4920;49.594;11.022;2022-11-21T13:40:58;3.00;;;1.50;;
9761;SDS011;4920;49.594;11.022;2022-11-21T13:43:45;2.53;;;1.60;;
9761;SDS011;4920;49.594;11.022;2022-11-21T13:49:27;3.70;;;1.53;;
9761;SDS011;4920;49.594;11.022;2022-11-21T13:52:03;6.20;;;1.70;;
9761;SDS011;4920;49.594;11.022;2022-11-21T13:57:50;6.50;;;1.80;;
9761;SDS011;4920;49.594;11.022;2022-11-21T14:00:34;3.37;;;1.43;;
9761;SDS011;4920;49.594;11.022;2022-11-21T14:03:32;3.60;;;1.40;;
9761;SDS011;4920;49.594;11.022;2022-11-21T14:11:51;3.67;;;1.50;;
9761;SDS011;4920;49.594;11.022;2022-11-21T14:14:23;4.93;;;1.73;;
9761;SDS011;4920;49.594;11.022;2022-11-21T14:17:02;5.67;;;1.80;;
9761;SDS011;4920;49.594;11.022;2022-11-21T14:19:42;5.03;;;1.80;;
9761;SDS011;4920;49.594;11.022;2022-11-21T14:22:13;3.40;;;1.53;;
9761;SDS011;4920;49.594;11.022;2022-11-21T14:24:43;5.40;;;1.70;;
9761;SDS011;4920;49.594;11.022;2022-11-21T14:27:15;4.30;;;1.50;;
9761;SDS011;4920;49.594;11.022;2022-11-21T14:29:51;5.37;;;1.80;;
9761;SDS011;4920;49.594;11.022;2022-11-21T14:32:25;3.73;;;1.53;;
9761;SDS011;4920;49.594;11.022;2022-11-21T14:35:07;3.60;;;1.50;;
9761;SDS011;4920;49.594;11.022;2022-11-21T14:37:40;4.57;;;1.80;;
9761;SDS011;4920;49.594;11.022;2022-11-21T14:40:10;5.30;;;1.80;;
9761;SDS011;4920;49.594;11.022;2022-11-21T14:42:40;5.80;;;2.00;;
9761;SDS011;4920;49.594;11.022;2022-11-21T14:45:14;4.60;;;1.93;;
9761;SDS011;4920;49.594;11.022;2022-11-21T14:47:46;4.97;;;1.80;;
9761;SDS011;4920;49.594;11.022;2022-11-21T14:50:23;4.07;;;1.83;;
9761;SDS011;4920;49.594;11.022;2022-11-21T14:52:52;5.00;;;2.10;;
9761;SDS011;4920;49.594;11.022;2022-11-21T14:55:25;4.00;;;1.83;;
9761;SDS011;4920;49.594;11.022;2022-11-21T14:57:57;6.37;;;2.30;;
9761;SDS011;4920;49.594;11.022;2022-11-21T15:00:28;5.13;;;1.93;;
9761;SDS011;4920;49.594;11.022;2022-11-21T15:03:19;5.17;;;2.23;;
9761;SDS011;4920;49.594;11.022;2022-11-21T15:05:56;6.80;;;2.40;;
9761;SDS011;4920;49.594;11.022;2022-11-21T15:08:31;4.47;;;2.10;;
9761;SDS011;4920;49.594;11.022;2022-11-21T15:14:22;5.20;;;2.20;;
9761;SDS011;4920;49.594;11.022;2022-11-21T15:16:53;6.20;;;2.00;;
9761;SDS011;4920;49.594;11.022;2022-11-21T15:19:25;6.77;;;2.57;;
9761;SDS011;4920;49.594;11.022;2022-11-21T15:21:56;5.60;;;2.43;;
9761;SDS011;4920;49.594;11.022;2022-11-21T15:24:29;6.13;;;2.70;;
9761;SDS011;4920;49.594;11.022;2022-11-21T15:30:00;6.83;;;2.53;;
9761;SDS011;4920;49.594;11.022;2022-11-21T15:32:29;5.17;;;2.43;;
9761;SDS011;4920;49.594;11.022;2022-11-21T15:34:59;7.20;;;2.77;;
9761;SDS011;4920;49.594;11.022;2022-11-21T15:37:57;4.67;;;2.47;;
9761;SDS011;4920;49.594;11.022;2022-11-21T15:40:25;6.87;;;3.00;;
9761;SDS011;4920;49.594;11.022;2022-11-21T15:49:22;9.87;;;4.83;;
9761;SDS011;4920;49.594;11.022;2022-11-21T15:52:06;13.00;;;5.73;;
9761;SDS011;4920;49.594;11.022;2022-11-21T15:54:38;12.53;;;5.93;;
9761;SDS011;4920;49.594;11.022;2022-11-21T15:57:06;11.60;;;5.40;;
9761;SDS011;4920;49.594;11.022;2022-11-21T16:03:19;11.00;;;5.30;;
9761;SDS011;4920;49.594;11.022;2022-11-21T16:05:47;12.20;;;5.43;;
9761;SDS011;4920;49.594;11.022;2022-11-21T16:08:17;10.20;;;4.60;;
9761;SDS011;4920;49.594;11.022;2022-11-21T16:13:42;9.20;;;4.00;;
9761;SDS011;4920;49.594;11.022;2022-11-21T16:16:16;8.47;;;4.40;;
9761;SDS011;4920;49.594;11.022;2022-11-21T16:18:49;7.90;;;3.57;;
9761;SDS011;4920;49.594;11.022;2022-11-21T16:24:39;17.70;;;7.33;;
9761;SDS011;4920;49.594;11.022;2022-11-21T16:27:07;18.37;;;7.67;;
9761;SDS011;4920;49.594;11.022;2022-11-21T16:32:29;13.87;;;7.17;;
9761;SDS011;4920;49.594;11.022;2022-11-21T16:34:57;15.77;;;7.30;;
9761;SDS011;4920;49.594;11.022;2022-11-21T16:37:25;14.63;;;8.33;;
9761;SDS011;4920;49.594;11.022;2022-11-21T16:39:55;16.73;;;8.50;;
9761;SDS011;4920;49.594;11.022;2022-11-21T16:42:24;18.87;;;10.13;;
9761;SDS011;4920;49.594;11.022;2022-11-21T16:44:52;21.20;;;12.07;;
9761;SDS011;4920;49.594;11.022;2022-11-21T16:47:20;21.13;;;12.33;;
9761;SDS011;4920;49.594;11.022;2022-11-21T16:49:48;21.27;;;12.80;;